Time;durP1;ratioP1;P1;durP2;ratioP2;P2;SDS_P1;SDS_P2;PMS_P1;PMS_P2;Temp;Humidity;BMP_temperature;BMP_pressure;BME280_temperature;BME280_humidity;BME280_pressure;Samples;Min_cycle;Max_cycle;Signal;HPM_P1;HPM_P2
2022/10/04 00:01:54;;;;;;;25.02;16.52;;;;;;;-146.58;100.00;69501.63;4991663;28;20413;-62
2022/10/04 00:04:28;;;;;;;19.48;14.10;;;;;;;-146.58;100.00;69501.63;4992946;28;20113;-62
2022/10/04 00:07:11;;;;;;;21.88;15.77;;;;;;;-146.58;100.00;69501.63;4991446;28;20169;-62
2022/10/04 00:09:44;;;;;;;23.95;14.43;;;;;;;-146.58;100.00;69501.63;4993367;28;20417;-62
2022/10/04 00:12:30;;;;;;;31.10;16.23;;;;;;;-146.58;100.00;69501.63;4991249;28;20117;-62
2022/10/04 00:14:59;;;;;;;26.02;13.95;;;;;;;-146.58;100.00;69501.63;4992484;28;20482;-62
2022/10/04 00:17:34;;;;;;;23.88;13.70;;;;;;;-146.58;100.00;69501.63;4990572;28;20049;-62
2022/10/04 00:20:01;;;;;;;19.52;14.43;;;;;;;-146.58;100.00;69501.63;4993310;28;20041;-62
2022/10/04 00:22:30;;;;;;;21.42;13.80;;;;;;;-146.58;100.00;69501.63;4991099;28;20053;-62
2022/10/04 00:25:12;;;;;;;21.42;13.35;;;;;;;-146.58;100.00;69501.63;4992740;28;20636;-62
2022/10/04 00:27:39;;;;;;;30.17;16.30;;;;;;;-146.58;100.00;69501.63;4991289;28;20054;-62
2022/10/04 00:30:05;;;;;;;18.45;12.55;;;;;;;-146.58;100.00;69501.63;4992037;28;20027;-62
2022/10/04 00:32:40;;;;;;;19.95;14.30;;;;;;;-146.58;100.00;69501.63;4991246;28;20495;-62
2022/10/04 00:35:23;;;;;;;20.08;12.32;;;;;;;-146.58;100.00;69501.63;4992268;28;20553;-62
2022/10/04 00:38:07;;;;;;;20.33;12.20;;;;;;;-146.58;100.00;69501.63;4990874;28;20053;-62
2022/10/04 00:40:37;;;;;;;21.90;13.48;;;;;;;-146.58;100.00;69501.63;4992852;28;20029;-62
2022/10/04 00:43:26;;;;;;;30.02;12.43;;;;;;;-146.58;100.00;69501.63;4991103;28;20177;-63
2022/10/04 00:45:57;;;;;;;27.02;13.63;;;;;;;-146.58;100.00;69501.63;4979746;28;20413;-62
2022/10/04 00:48:43;;;;;;;18.27;13.63;;;;;;;-146.58;100.00;69501.63;4990370;28;20034;-62
2022/10/04 00:51:11;;;;;;;21.52;12.48;;;;;;;-146.58;100.00;69501.63;4992067;28;20521;-62
2022/10/04 00:53:41;;;;;;;18.75;12.88;;;;;;;-146.58;100.00;69501.63;4990794;28;20414;-62
2022/10/04 00:56:17;;;;;;;16.00;14.07;;;;;;;-146.58;100.00;69501.63;4991766;28;20069;-64
2022/10/04 00:59:07;;;;;;;26.13;13.73;;;;;;;-146.58;100.00;69501.63;4990466;28;20398;-64
2022/10/04 01:01:34;;;;;;;19.33;12.85;;;;;;;-146.58;100.00;69501.63;4992144;28;20023;-64
2022/10/04 01:04:04;;;;;;;25.10;14.27;;;;;;;-146.58;100.00;69501.63;4990961;28;20123;-64
2022/10/04 01:06:31;;;;;;;16.95;14.00;;;;;;;-146.58;100.00;69501.63;4991749;28;20022;-64
2022/10/04 01:09:04;;;;;;;17.05;14.30;;;;;;;-146.58;100.00;69501.63;4990519;28;20065;-64
2022/10/04 01:11:37;;;;;;;21.90;11.63;;;;;;;-146.58;100.00;69501.63;4991874;28;20011;-64
2022/10/04 01:14:13;;;;;;;21.02;14.63;;;;;;;-146.58;100.00;69501.63;4990809;28;20038;-64
2022/10/04 01:16:40;;;;;;;19.55;13.65;;;;;;;-146.58;100.00;69501.63;4990323;28;20497;-63
2022/10/04 01:19:23;;;;;;;26.95;15.30;;;;;;;-146.58;100.00;69501.63;4991504;28;20018;-63
2022/10/04 01:22:09;;;;;;;16.50;14.77;;;;;;;-146.58;100.00;69501.63;4990046;28;20022;-63
2022/10/04 01:24:40;;;;;;;20.45;14.98;;;;;;;-146.58;100.00;69501.63;4991339;28;20037;-63
2022/10/04 01:27:30;;;;;;;27.65;14.38;;;;;;;-146.58;100.00;69501.63;4990187;28;20077;-63
2022/10/04 01:29:55;;;;;;;22.92;15.60;;;;;;;-146.58;100.00;69501.63;4992017;28;20058;-63
2022/10/04 01:32:22;;;;;;;22.63;13.30;;;;;;;-146.58;100.00;69501.63;4990104;28;20540;-63
2022/10/04 01:34:47;;;;;;;27.52;15.68;;;;;;;-146.58;100.00;69501.63;4991310;28;20030;-63
2022/10/04 01:37:13;;;;;;;20.25;12.73;;;;;;;-146.58;100.00;69501.63;4988967;28;20596;-63
2022/10/04 01:39:38;;;;;;;20.67;16.15;;;;;;;-146.58;100.00;69501.63;4991710;28;20034;-63
2022/10/04 01:42:40;;;;;;;17.33;14.43;;;;;;;-146.58;100.00;69501.63;4989671;28;20121;-62
2022/10/04 01:45:14;;;;;;;17.15;12.75;;;;;;;-146.58;100.00;69501.63;4991116;28;20108;-62
2022/10/04 01:47:46;;;;;;;24.85;14.05;;;;;;;-146.58;100.00;69501.63;4989657;28;20038;-62
2022/10/04 01:50:18;;;;;;;20.33;14.13;;;;;;;-146.58;100.00;69501.63;4991354;28;20043;-62
2022/10/04 01:52:49;;;;;;;16.13;12.23;;;;;;;-146.58;100.00;69501.63;4989809;28;20501;-62
2022/10/04 01:55:27;;;;;;;18.15;12.93;;;;;;;-146.58;100.00;69501.63;4971934;28;20035;-62
2022/10/04 01:58:16;;;;;;;21.85;13.20;;;;;;;-146.58;100.00;69501.63;4982550;28;20065;-62
2022/10/04 02:00:58;;;;;;;19.23;15.50;;;;;;;-146.58;100.00;69501.63;4991022;28;20053;-63
2022/10/04 02:03:47;;;;;;;24.50;13.23;;;;;;;-146.58;100.00;69501.63;4989667;28;20092;-63
2022/10/04 02:06:14;;;;;;;24.83;14.52;;;;;;;-146.58;100.00;69501.63;4991034;28;20030;-63
2022/10/04 02:08:48;;;;;;;23.75;14.65;;;;;;;-146.58;100.00;69501.63;4989491;28;20073;-63
2022/10/04 02:11:19;;;;;;;18.73;13.13;;;;;;;-146.58;100.00;69501.63;4991381;28;20030;-64
2022/10/04 02:13:46;;;;;;;16.88;13.32;;;;;;;-146.58;100.00;69501.63;4989732;28;20053;-64
2022/10/04 02:16:11;;;;;;;17.42;11.85;;;;;;;-146.58;100.00;69501.63;4990957;28;20038;-64
2022/10/04 02:18:39;;;;;;;23.85;13.38;;;;;;;-146.58;100.00;69501.63;4989287;28;20395;-64
2022/10/04 02:21:06;;;;;;;18.80;11.90;;;;;;;-146.58;100.00;69501.63;4990647;28;20478;-64
2022/10/04 02:23:34;;;;;;;17.42;13.32;;;;;;;-146.58;100.00;69501.63;4990026;28;20050;-64
2022/10/04 02:26:06;;;;;;;16.83;13.13;;;;;;;-146.58;100.00;69501.63;4991226;28;20101;-64
2022/10/04 02:28:33;;;;;;;14.40;10.55;;;;;;;-146.58;100.00;69501.63;4989221;28;20042;-64
2022/10/04 02:33:47;;;;;;;26.95;14.52;;;;;;;-146.58;100.00;69501.63;4989960;28;20452;-65
2022/10/04 02:36:13;;;;;;;19.85;13.10;;;;;;;-146.58;100.00;69501.63;4994100;28;20041;-64
2022/10/04 02:38:52;;;;;;;25.63;14.50;;;;;;;-146.58;100.00;69501.63;4992929;28;20045;-64
2022/10/04 02:41:30;;;;;;;20.52;11.90;;;;;;;-146.58;100.00;69501.63;4994812;28;20034;-63
2022/10/04 02:44:16;;;;;;;17.55;13.13;;;;;;;-146.58;100.00;69501.63;4993109;28;20494;-63
2022/10/04 02:46:56;;;;;;;22.13;16.52;;;;;;;-146.58;100.00;69501.63;4992816;28;20085;-64
2022/10/04 02:49:33;;;;;;;23.52;14.98;;;;;;;-146.58;100.00;69501.63;4994503;28;20386;-64
2022/10/04 02:52:10;;;;;;;17.10;13.70;;;;;;;-146.58;100.00;69501.63;4993186;28;20069;-64
2022/10/04 02:54:44;;;;;;;20.92;13.48;;;;;;;-146.58;100.00;69501.63;4994642;28;20042;-62
2022/10/04 02:57:18;;;;;;;21.55;13.52;;;;;;;-146.58;100.00;69501.63;4992980;28;20421;-62
2022/10/04 02:59:44;;;;;;;23.42;14.63;;;;;;;-146.58;100.00;69501.63;4993950;28;20121;-62
2022/10/04 03:02:29;;;;;;;24.17;13.65;;;;;;;-146.58;100.00;69501.63;4992714;28;20122;-64
2022/10/04 03:04:59;;;;;;;34.05;17.48;;;;;;;-146.58;100.00;69501.63;4994565;28;20027;-64
2022/10/04 03:07:25;;;;;;;17.85;14.00;;;;;;;-146.58;100.00;69501.63;4991956;28;20038;-63
2022/10/04 03:09:51;;;;;;;23.23;15.85;;;;;;;-146.58;100.00;69501.63;4994100;28;20540;-64
2022/10/04 03:12:18;;;;;;;25.83;15.00;;;;;;;-146.58;100.00;69501.63;4992454;28;20062;-64
2022/10/04 03:14:44;;;;;;;17.90;14.30;;;;;;;-146.58;100.00;69501.63;4993828;28;20516;-63
2022/10/04 03:17:12;;;;;;;23.48;13.27;;;;;;;-146.58;100.00;69501.63;4992475;28;20109;-62
2022/10/04 03:19:38;;;;;;;18.63;15.95;;;;;;;-146.58;100.00;69501.63;4993549;28;20390;-63
2022/10/04 03:22:08;;;;;;;21.38;14.48;;;;;;;-146.58;100.00;69501.63;4983941;28;20070;-63
2022/10/04 03:24:46;;;;;;;23.23;15.30;;;;;;;-146.58;100.00;69501.63;4993573;28;20145;-63
2022/10/04 03:27:18;;;;;;;24.67;15.13;;;;;;;-146.58;100.00;69501.63;4992337;28;20141;-62
2022/10/04 03:29:44;;;;;;;26.63;15.45;;;;;;;-146.58;100.00;69501.63;4993287;28;20022;-62
2022/10/04 03:32:13;;;;;;;24.33;15.65;;;;;;;-146.58;100.00;69501.63;4992239;28;20050;-62
2022/10/04 03:34:40;;;;;;;;;;;;;;;-146.58;100.00;69501.63;4994449;28;20370;-61
2022/10/04 03:37:11;;;;;;;29.83;16.98;;;;;;;-146.58;100.00;69501.63;4991781;28;19964;-61
2022/10/04 03:39:44;;;;;;;21.02;16.20;;;;;;;-146.58;100.00;69501.63;4993213;28;20034;-62
2022/10/04 03:42:15;;;;;;;25.10;17.98;;;;;;;9.08;100.00;162938.69;4992238;28;20049;-62
2022/10/04 03:44:44;;;;;;;25.95;18.65;;;;;;;-146.58;100.00;69501.63;4993145;28;20884;-63
2022/10/04 03:47:15;;;;;;;;;;;;;;;-146.58;100.00;69501.63;4991668;28;20041;-63
2022/10/04 03:49:43;;;;;;;21.00;17.27;;;;;;;-146.58;100.00;69501.63;4992838;28;19932;-63
2022/10/04 03:52:18;;;;;;;27.02;19.15;;;;;;;-146.58;100.00;69501.63;4991895;28;20045;-63
2022/10/04 03:54:44;;;;;;;23.05;16.52;;;;;;;-146.58;100.00;69501.63;4993655;28;20172;-65
2022/10/04 03:57:10;;;;;;;23.73;16.70;;;;;;;-146.58;100.00;69501.63;4991201;28;20747;-63
2022/10/04 03:59:36;;;;;;;23.55;16.63;;;;;;;-146.58;100.00;69501.63;4993149;28;20026;-62
2022/10/04 04:02:15;;;;;;;25.60;15.68;;;;;;;-146.58;100.00;69501.63;4991699;28;20049;-62
2022/10/04 04:05:00;;;;;;;26.98;20.25;;;;;;;-146.58;100.00;69501.63;4992984;28;20030;-62
2022/10/04 04:07:44;;;;;;;31.85;17.55;;;;;;;-146.58;100.00;69501.63;4991481;28;20042;-61
2022/10/04 04:10:16;;;;;;;29.20;18.30;;;;;;;-146.58;100.00;69501.63;4993080;28;20026;-61
2022/10/04 04:12:56;;;;;;;25.42;19.00;;;;;;;-146.58;100.00;69501.63;4991101;28;20042;-59
2022/10/04 04:15:26;;;;;;;35.28;20.77;;;;;;;-146.58;100.00;69501.63;4993245;28;20084;-60
2022/10/04 04:17:53;;;;;;;26.23;19.25;;;;;;;-146.58;100.00;69501.63;4991249;28;20046;-60
2022/10/04 04:20:29;;;;;;;24.67;18.25;;;;;;;-146.58;100.00;69501.63;4992230;28;20033;-60
2022/10/04 04:22:59;;;;;;;25.70;18.58;;;;;;;-146.58;100.00;69501.63;4991556;28;20053;-61
2022/10/04 04:25:27;;;;;;;34.97;19.42;;;;;;;-146.58;100.00;69501.63;4992874;28;20053;-63
2022/10/04 04:28:01;;;;;;;30.00;19.38;;;;;;;-146.58;100.00;69501.63;4990839;28;20108;-62
2022/10/04 04:30:29;;;;;;;25.65;18.10;;;;;;;-146.58;100.00;69501.63;4992537;28;20033;-62
2022/10/04 04:32:56;;;;;;;32.38;21.08;;;;;;;-146.58;100.00;69501.63;4991659;28;20057;-63
2022/10/04 04:35:30;;;;;;;27.40;20.52;;;;;;;-146.58;100.00;69501.63;4991912;28;20029;-63
2022/10/04 04:38:09;;;;;;;25.00;18.10;;;;;;;-146.58;100.00;69501.63;4991216;28;20046;-63
2022/10/04 04:40:36;;;;;;;54.67;20.00;;;;;;;-146.58;100.00;69501.63;4992419;28;20030;-63
2022/10/04 04:43:02;;;;;;;29.10;17.02;;;;;;;-146.58;100.00;69501.63;4990856;28;20050;-64
2022/10/04 04:45:30;;;;;;;25.10;16.98;;;;;;;-146.58;100.00;69501.63;4992350;28;20037;-64
2022/10/04 04:47:56;;;;;;;27.35;18.52;;;;;;;-146.58;100.00;69501.63;4991035;28;20046;-64
2022/10/04 04:50:31;;;;;;;26.13;17.58;;;;;;;-146.58;100.00;69501.63;4991422;28;20022;-64
2022/10/04 04:53:07;;;;;;;21.15;15.35;;;;;;;-146.58;100.00;69501.63;4990893;28;20046;-64
2022/10/04 04:55:39;;;;;;;28.13;16.88;;;;;;;-146.58;100.00;69501.63;4992297;28;20034;-63
2022/10/04 04:58:07;;;;;;;17.23;14.35;;;;;;;-146.58;100.00;69501.63;4989388;28;20038;-63
2022/10/04 05:00:37;;;;;;;26.05;16.73;;;;;;;-146.58;100.00;69501.63;4992402;28;20030;-63
2022/10/04 05:03:17;;;;;;;24.85;16.77;;;;;;;-146.58;100.00;69501.63;4990633;28;20509;-62
2022/10/04 05:05:46;;;;;;;25.13;16.15;;;;;;;-146.58;100.00;69501.63;4992120;28;20061;-63
2022/10/04 05:08:21;;;;;;;34.08;16.33;;;;;;;-146.58;100.00;69501.63;4989907;28;20137;-62
2022/10/04 05:10:54;;;;;;;21.67;14.38;;;;;;;-146.58;100.00;69501.63;4991788;28;20081;-59
2022/10/04 05:13:22;;;;;;;31.95;18.35;;;;;;;-146.58;100.00;69501.63;4989286;28;20042;-59
2022/10/04 05:15:52;;;;;;;22.35;15.55;;;;;;;-146.58;100.00;69501.63;4992013;28;20023;-58
2022/10/04 05:18:33;;;;;;;24.05;14.68;;;;;;;8.48;100.00;162780.97;4989754;28;20505;-63
2022/10/04 05:21:04;;;;;;;28.50;16.58;;;;;;;8.48;100.00;162782.28;4990872;28;20141;-60
2022/10/04 05:23:31;;;;;;;27.13;16.23;;;;;;;8.47;100.00;162779.59;4989523;28;20053;-59
2022/10/04 05:25:59;;;;;;;22.13;15.18;;;;;;;8.47;100.00;162779.59;4987350;28;20022;-59
2022/10/04 05:28:24;;;;;;;20.85;15.45;;;;;;;8.49;100.00;162785.00;4990157;28;20053;-60
2022/10/04 05:31:20;;;;;;;26.55;15.95;;;;;;;8.51;100.00;162790.41;4991449;28;20053;-61
2022/10/04 05:33:49;;;;;;;20.05;15.63;;;;;;;8.53;100.00;162795.75;4990170;28;20038;-61
2022/10/04 05:36:38;;;;;;;25.20;17.42;;;;;;;8.61;100.00;162814.63;4991411;28;20105;-61
2022/10/04 05:39:06;;;;;;;24.50;15.88;;;;;;;8.65;100.00;162825.44;4989758;28;20046;-61
2022/10/04 05:41:45;;;;;;;28.10;18.35;;;;;;;8.66;100.00;162829.47;4991034;28;20041;-61
2022/10/04 05:44:24;;;;;;;28.85;17.00;;;;;;;8.64;100.00;162822.75;4989745;28;20193;-62
2022/10/04 05:46:51;;;;;;;27.90;15.15;;;;;;;8.65;100.00;162826.78;4989664;28;20029;-61
2022/10/04 05:49:18;;;;;;;21.02;15.63;;;;;;;8.69;100.00;162836.22;4990886;28;20030;-61
2022/10/04 05:51:54;;;;;;;29.38;16.10;;;;;;;8.65;100.00;162825.44;4990019;28;20022;-61
2022/10/04 05:54:25;;;;;;;25.15;15.30;;;;;;;8.63;100.00;162820.03;4991190;28;20185;-61
2022/10/04 05:57:29;;;;;;;29.88;16.40;;;;;;;8.65;100.00;162825.44;4989587;28;20116;-61
2022/10/04 06:00:06;;;;;;;23.17;15.15;;;;;;;8.70;100.00;162838.91;4990985;28;20060;-61
2022/10/04 06:02:41;;;;;;;40.38;17.33;;;;;;;8.73;100.00;162848.34;4988633;28;20089;-62
2022/10/04 06:05:17;;;;;;;28.30;15.48;;;;;;;8.78;100.00;162860.50;4989307;28;20027;-62
2022/10/04 06:08:14;;;;;;;25.83;14.82;;;;;;;8.79;100.00;162863.19;4989962;28;20093;-62
2022/10/04 06:11:03;;;;;;;64.65;21.50;;;;;;;8.78;100.00;162860.50;4973721;28;20046;-62
2022/10/04 06:14:05;;;;;;;30.60;18.38;;;;;;;8.82;100.00;162871.31;4979158;28;20038;-62
2022/10/04 06:16:52;;;;;;;25.58;15.48;;;;;;;8.89;100.00;162890.19;4994949;28;20041;-62
2022/10/04 06:19:48;;;;;;;32.00;15.90;;;;;;;9.00;100.00;162917.13;4991363;28;20803;-62
2022/10/04 06:22:18;;;;;;;30.85;17.63;;;;;;;9.10;100.00;162944.09;4990235;28;20043;-62
2022/10/04 06:24:51;;;;;;;21.58;14.30;;;;;;;9.20;100.00;162971.03;4998940;28;20533;-62
2022/10/04 06:27:34;;;;;;;24.10;15.32;;;;;;;9.29;100.00;162992.63;4997038;28;20042;-62
2022/10/04 06:30:13;;;;;;;25.35;14.52;;;;;;;9.38;100.00;163015.59;4994147;28;20385;-62
2022/10/04 06:33:06;;;;;;;30.20;18.38;;;;;;;9.43;100.00;163029.06;4991307;28;20061;-62
2022/10/04 06:35:51;;;;;;;20.20;15.40;;;;;;;9.48;100.00;163043.91;4993713;28;20036;-62
2022/10/04 06:38:32;;;;;;;29.30;15.02;;;;;;;9.52;100.00;163053.34;4992266;28;20053;-60
2022/10/04 06:41:32;;;;;;;27.52;15.25;;;;;;;9.57;100.00;163065.50;4993005;28;20045;-59
2022/10/04 06:44:12;;;;;;;27.02;15.30;;;;;;;9.67;100.00;163093.81;4992731;28;20050;-60
2022/10/04 06:47:03;;;;;;;34.08;15.35;;;;;;;9.68;100.00;163096.47;4992366;28;20052;-59
2022/10/04 06:49:55;;;;;;;24.45;14.65;;;;;;;9.75;100.00;163114.03;4991821;28;20474;-59
2022/10/04 06:52:39;;;;;;;24.30;14.63;;;;;;;9.79;100.00;163124.81;4983525;28;20046;-59
2022/10/04 06:55:20;;;;;;;17.02;12.93;;;;;;;9.80;100.00;163126.19;4993326;28;20105;-60
2022/10/04 06:57:58;;;;;;;28.02;14.82;;;;;;;9.82;100.00;163132.94;4992470;28;20054;-60
2022/10/04 07:00:25;;;;;;;22.83;13.07;;;;;;;9.83;100.00;163135.63;4992482;28;20389;-60
2022/10/04 07:03:08;;;;;;;20.75;12.60;;;;;;;9.87;100.00;163143.69;4990689;28;20050;-60
2022/10/04 07:05:41;;;;;;;24.55;13.88;;;;;;;9.88;100.00;163146.41;4992819;28;20026;-60
2022/10/04 07:08:29;;;;;;;27.52;13.65;;;;;;;9.98;100.00;163173.41;4991872;28;20045;-60
2022/10/04 07:10:58;;;;;;;19.00;13.85;;;;;;;10.05;100.00;163190.97;4991792;28;20482;-63
2022/10/04 07:13:26;;;;;;;23.40;13.50;;;;;;;10.08;100.00;163199.03;4995396;28;20050;-63
2022/10/04 07:16:16;;;;;;;19.05;13.50;;;;;;;10.12;100.00;163209.84;4993707;28;20040;-63
2022/10/04 07:18:59;;;;;;;18.88;13.20;;;;;;;10.17;100.00;163223.34;4990915;28;20042;-63
2022/10/04 07:21:35;;;;;;;18.98;13.48;;;;;;;10.19;100.00;163227.38;4992444;28;20030;-64
2022/10/04 07:24:02;;;;;;;19.40;14.25;;;;;;;10.36;100.00;163273.25;4991860;28;20030;-63
2022/10/04 07:26:36;;;;;;;26.90;15.25;;;;;;;10.48;100.00;163305.69;4991665;28;20481;-63
2022/10/04 07:29:20;;;;;;;30.17;15.10;;;;;;;10.54;100.00;163319.19;4990373;28;20074;-63
2022/10/04 07:31:49;;;;;;;21.65;13.82;;;;;;;10.61;100.00;163338.13;5000855;28;20155;-63
2022/10/04 07:34:21;;;;;;;15.48;13.30;;;;;;;10.75;100.00;163375.91;4992243;28;20026;-63
2022/10/04 07:36:54;;;;;;;21.52;11.27;;;;;;;10.88;100.00;163408.28;4991808;28;20037;-63
2022/10/04 07:39:32;;;;;;;21.23;13.13;;;;;;;-146.58;100.00;69501.63;4973176;28;20561;-63
2022/10/04 07:42:13;;;;;;;13.60;12.07;;;;;;;-146.58;100.00;69501.63;4988841;28;20125;-63
2022/10/04 07:44:47;;;;;;;14.30;11.10;;;;;;;-146.58;100.00;69501.63;4974104;28;20031;-63
2022/10/04 07:47:19;;;;;;;22.25;11.40;;;;;;;-146.58;100.00;69501.63;4988248;28;20046;-63
2022/10/04 07:49:49;;;;;;;18.95;11.55;;;;;;;10.88;100.00;163408.28;4991987;28;20500;-63
2022/10/04 07:52:17;;;;;;;21.38;12.52;;;;;;;-146.58;100.00;69501.63;4991516;28;20563;-63
2022/10/04 07:55:12;;;;;;;13.20;9.95;;;;;;;-146.58;100.00;69501.63;4991756;28;20062;-63
2022/10/04 07:57:57;;;;;;;13.52;8.10;;;;;;;12.30;100.00;163781.13;4991906;28;20153;-63
2022/10/04 08:00:31;;;;;;;14.95;8.95;;;;;;;12.30;100.00;163781.13;4992543;28;20033;-63
2022/10/04 08:03:12;;;;;;;16.17;10.35;;;;;;;12.80;100.00;163910.84;4987363;28;20417;-62
2022/10/04 08:05:41;;;;;;;11.40;9.77;;;;;;;12.87;100.00;163929.78;4997494;28;20053;-66
2022/10/04 08:08:24;;;;;;;17.92;9.48;;;;;;;13.00;100.00;163964.91;4982808;28;20046;-62
2022/10/04 08:11:09;;;;;;;21.80;10.18;;;;;;;-146.58;100.00;69501.63;4987941;28;20504;-61
2022/10/04 08:13:44;;;;;;;9.80;8.20;;;;;;;13.20;100.00;164016.31;4990401;28;20053;-61
2022/10/04 08:16:27;;;;;;;8.15;6.05;;;;;;;-146.58;100.00;69501.63;4991783;28;20030;-61
2022/10/04 08:19:26;;;;;;;13.27;9.60;;;;;;;-146.58;100.00;69501.63;4989802;28;20038;-60
2022/10/04 08:22:13;;;;;;;12.75;8.77;;;;;;;-146.58;100.00;69501.63;4989513;28;20030;-61
2022/10/04 08:24:55;;;;;;;13.57;8.70;;;;;;;-146.58;100.00;69501.63;4986882;28;20034;-59
2022/10/04 08:29:41;;;;;;;12.45;7.03;;;;;;;-146.58;100.00;69501.63;4990068;28;20097;-59
2022/10/04 08:30:37;;;;;;;16.75;8.35;;;;;;;-146.58;100.00;69501.63;4992063;28;20176;-60
2022/10/04 08:33:25;;;;;;;14.93;8.40;;;;;;;-146.58;100.00;69501.63;4988963;28;20115;-60
2022/10/04 08:36:10;;;;;;;15.88;7.55;;;;;;;-146.58;100.00;69501.63;4991946;28;20645;-59
2022/10/04 08:38:45;;;;;;;14.88;7.90;;;;;;;-146.58;100.00;69501.63;4990332;28;20386;-59
2022/10/04 08:41:35;;;;;;;17.75;7.93;;;;;;;-146.58;100.00;69501.63;4991180;28;20458;-59
2022/10/04 08:44:44;;;;;;;10.50;8.93;;;;;;;-146.58;100.00;69501.63;4971016;28;20486;-59
2022/10/04 08:47:36;;;;;;;19.08;8.95;;;;;;;-146.58;100.00;69501.63;4973627;28;20039;-63
2022/10/04 08:50:32;;;;;;;15.77;7.55;;;;;;;-146.58;100.00;69501.63;4991856;28;20470;-59
2022/10/04 08:53:29;;;;;;;15.00;7.03;;;;;;;-146.58;100.00;69501.63;4990622;28;20809;-59
2022/10/04 08:56:31;;;;;;;9.48;7.05;;;;;;;-146.58;100.00;69501.63;4990475;28;20096;-59
2022/10/04 08:59:18;;;;;;;13.43;7.38;;;;;;;-146.58;100.00;69501.63;4988688;28;20494;-59
2022/10/04 09:02:21;;;;;;;14.70;8.32;;;;;;;-146.58;100.00;69501.63;4985659;28;20108;-59
2022/10/04 09:05:13;;;;;;;24.88;10.20;;;;;;;-146.58;100.00;69501.63;4988511;28;20038;-59
2022/10/04 09:08:07;;;;;;;12.52;7.93;;;;;;;-146.58;100.00;69501.63;4988546;28;20049;-59
2022/10/04 09:11:13;;;;;;;15.88;7.93;;;;;;;-146.58;100.00;69501.63;4991687;28;20026;-59
2022/10/04 09:13:43;;;;;;;12.55;7.22;;;;;;;-146.58;100.00;69501.63;4989427;28;20518;-59
2022/10/04 09:16:47;;;;;;;8.73;6.10;;;;;;;-146.58;100.00;69501.63;4991006;28;20042;-59
2022/10/04 09:19:52;;;;;;;8.05;6.35;;;;;;;-146.58;100.00;69501.63;4990056;28;20050;-59
2022/10/04 09:22:31;;;;;;;14.95;6.20;;;;;;;-146.58;100.00;69501.63;4989785;28;20080;-59
2022/10/04 09:25:02;;;;;;;23.00;7.85;;;;;;;-146.58;100.00;69501.63;4991303;28;20061;-59
2022/10/04 09:28:11;;;;;;;8.38;6.68;;;;;;;17.41;100.00;165121.03;4989846;28;20053;-59
2022/10/04 09:31:21;;;;;;;8.38;6.20;;;;;;;17.34;100.00;165100.75;4991249;28;20048;-58
2022/10/04 09:34:22;;;;;;;10.38;6.90;;;;;;;17.31;100.00;165093.97;4984713;28;20057;-59
2022/10/04 09:37:07;;;;;;;12.35;7.50;;;;;;;17.08;100.00;165034.34;4970939;28;20035;-59
2022/10/04 09:40:12;;;;;;;14.43;6.68;;;;;;;16.71;100.00;164935.38;4971703;28;20030;-58
2022/10/04 09:42:59;;;;;;;12.13;8.32;;;;;;;16.64;100.00;164917.78;4973918;28;20405;-59
2022/10/04 09:46:01;;;;;;;14.10;6.35;;;;;;;16.67;100.00;164924.53;4989993;28;20105;-58
2022/10/04 09:48:29;;;;;;;12.82;8.27;;;;;;;16.83;100.00;164966.53;4970362;28;20411;-58
2022/10/04 09:51:07;;;;;;;15.55;7.43;;;;;;;16.93;100.00;164993.69;4972224;28;20037;-58
2022/10/04 09:54:02;;;;;;;11.60;6.63;;;;;;;16.95;100.00;164999.06;4981810;28;20481;-58
2022/10/04 09:56:39;;;;;;;13.63;7.45;;;;;;;17.31;100.00;165092.59;4983771;28;20486;-58
2022/10/04 09:59:23;;;;;;;13.63;6.40;;;;;;;17.38;100.00;165112.94;4989650;28;20038;-57
2022/10/04 10:02:27;;;;;;;20.45;7.55;;;;;;;17.61;100.00;165172.53;4975251;28;20478;-57
2022/10/04 10:05:34;;;;;;;10.15;6.55;;;;;;;17.66;100.00;165186.13;4975321;28;20027;-58
2022/10/04 10:08:25;;;;;;;8.02;5.60;;;;;;;17.67;100.00;165188.84;4987725;28;20080;-58
2022/10/04 10:14:36;;;;;;;17.65;7.68;;;;;;;17.30;100.00;165091.25;4988946;28;20089;-58
2022/10/04 10:17:14;;;;;;;14.20;7.75;;;;;;;17.11;100.00;165042.44;4989024;28;20417;-58
2022/10/04 10:20:15;;;;;;;10.68;5.57;;;;;;;17.04;100.00;165023.47;4990684;28;20100;-58
2022/10/04 10:23:22;;;;;;;8.00;5.93;;;;;;;17.19;100.00;165061.41;4985674;28;20130;-58
2022/10/04 10:26:14;;;;;;;9.60;6.07;;;;;;;17.33;100.00;165099.34;4991156;28;20034;-58
2022/10/04 10:28:58;;;;;;;14.05;6.97;;;;;;;17.38;100.00;165112.94;4988563;28;20035;-58
2022/10/04 10:32:01;;;;;;;11.98;6.65;;;;;;;17.41;100.00;165121.03;4988026;28;20137;-58
2022/10/04 10:34:54;;;;;;;15.43;7.93;;;;;;;17.37;100.00;165110.22;4968777;28;20066;-58
2022/10/04 10:37:39;;;;;;;13.18;7.00;;;;;;;17.40;100.00;165118.31;4974183;28;20743;-59
2022/10/04 10:40:51;;;;;;;13.13;6.47;;;;;;;17.45;100.00;165130.53;4971152;28;20474;-58
2022/10/04 10:43:25;;;;;;;9.63;5.55;;;;;;;17.65;100.00;165183.41;4970844;28;20082;-59
2022/10/04 10:46:05;;;;;;;9.55;6.70;;;;;;;17.73;100.00;165205.09;4989787;28;20030;-58
2022/10/04 10:48:51;;;;;;;20.10;7.68;;;;;;;17.50;100.00;165142.72;4989035;28;20096;-59
2022/10/04 10:51:29;;;;;;;17.23;7.07;;;;;;;17.24;100.00;165074.94;4989968;28;20538;-58
2022/10/04 10:54:24;;;;;;;10.23;5.68;;;;;;;17.31;100.00;165093.97;4988511;28;20157;-58
2022/10/04 10:56:59;;;;;;;8.52;5.93;;;;;;;17.46;100.00;165133.25;4990799;28;20034;-58
2022/10/04 10:59:58;;;;;;;13.60;6.32;;;;;;;17.49;100.00;165140.03;4993633;28;20026;-58
2022/10/04 11:02:46;;;;;;;15.82;7.35;;;;;;;17.68;100.00;165191.56;4992826;28;20092;-58
2022/10/04 11:05:49;;;;;;;7.88;5.60;;;;;;;17.67;100.00;165188.84;4993852;28;20038;-58
2022/10/04 11:08:33;;;;;;;21.05;7.55;;;;;;;17.75;100.00;165209.16;4985134;28;20046;-58
2022/10/04 11:11:32;;;;;;;9.70;6.82;;;;;;;17.74;100.00;165207.81;4994203;28;20101;-58
2022/10/04 11:14:36;;;;;;;10.70;7.07;;;;;;;17.69;100.00;165194.22;4992030;28;20437;-58
2022/10/04 11:17:28;;;;;;;13.88;7.88;;;;;;;17.49;100.00;165140.03;4992284;28;20121;-58
2022/10/04 11:20:39;;;;;;;11.90;8.20;;;;;;;17.54;100.00;165153.56;4994349;28;20030;-58
2022/10/04 11:23:27;;;;;;;13.30;6.63;;;;;;;17.69;100.00;165192.88;4991511;28;20129;-58
2022/10/04 11:26:18;;;;;;;15.27;8.68;;;;;;;17.59;100.00;165167.16;4993333;28;20490;-58
2022/10/04 11:28:57;;;;;;;11.48;6.72;;;;;;;17.51;100.00;165145.44;4991884;28;20070;-58
2022/10/04 11:31:44;;;;;;;13.98;6.07;;;;;;;17.53;100.00;165150.88;4993280;28;20058;-58
2022/10/04 11:34:34;;;;;;;10.52;6.90;;;;;;;17.59;100.00;165167.16;4992090;28;20050;-58
2022/10/04 11:37:11;;;;;;;16.23;7.72;;;;;;;17.64;100.00;165179.34;4991559;28;20524;-58
2022/10/04 11:40:05;;;;;;;11.23;6.40;;;;;;;17.86;100.00;165237.59;4993312;28;20040;-58
2022/10/04 11:42:51;;;;;;;11.35;6.47;;;;;;;17.92;100.00;165253.88;4992205;28;20031;-58
2022/10/04 11:45:55;;;;;;;12.43;6.60;;;;;;;17.80;100.00;165221.34;4993035;28;20033;-58
2022/10/04 11:48:52;;;;;;;9.18;6.05;;;;;;;17.73;100.00;165205.09;4984912;28;20042;-58
2022/10/04 11:51:53;;;;;;;12.32;7.50;;;;;;;17.85;100.00;165234.88;4990629;28;20038;-58
2022/10/04 11:54:44;;;;;;;17.27;6.70;;;;;;;17.95;100.00;165260.63;4990125;28;20054;-58
2022/10/04 11:57:24;;;;;;;18.55;6.45;;;;;;;18.00;100.00;165275.59;4972151;28;20039;-58
2022/10/04 12:00:15;;;;;;;11.93;7.57;;;;;;;18.06;100.00;165291.88;4992000;28;20077;-58
2022/10/04 12:03:18;;;;;;;12.32;7.65;;;;;;;18.12;100.00;165305.47;4990971;28;20134;-58
2022/10/04 12:06:21;;;;;;;14.57;6.53;;;;;;;18.29;100.00;165350.19;4992634;28;20116;-58